Terminal Aerodrome Forecast
Issued by NWS

Home | Current Version | Previous Version | Text Only | Print | Product List | Glossary On
Versions: 1 2 3 4 5 6 7 8 9 10 11 12 13 14 15
567
FTUS42 KTBW 251720
TAFPIE
TAF
KPIE 251720Z 2518/2618 16007KT P6SM VCTS SCT030CB BKN050 BKN100
      TEMPO 2518/2522 VRB15G25KT 2SM +TSRA BKN020CB
     FM252200 16007KT 6SM SHRA VCTS BKN030CB OVC080
     FM260200 12006KT P6SM SCT025 BKN050 OVC080
     FM261400 13012G20KT 6SM -RA VCTS FEW006 SCT015CB OVC025=

USA.gov is the U.S. government's official web portal to all federal, state and local government web resources and services.